Time;durP1;ratioP1;P1;durP2;ratioP2;P2;SDS_P1;SDS_P2;PMS_P1;PMS_P2;Temp;Humidity;BMP_temperature;BMP_pressure;BME280_temperature;BME280_humidity;BME280_pressure;Samples;Min_cycle;Max_cycle;Signal;HPM_P1;HPM_P2
2021/07/30 00:01:56;;;;;;;3.00;2.30;;;;;;;17.55;63.55;96927.06;4961180;28;20543;-78
2021/07/30 00:04:21;;;;;;;4.38;3.00;;;;;;;17.62;63.74;96924.78;4962220;28;20046;-79
2021/07/30 00:06:47;;;;;;;3.90;2.60;;;;;;;17.61;63.71;96928.50;4955463;28;20042;-79
2021/07/30 00:09:12;;;;;;;3.50;2.70;;;;;;;17.59;63.03;96918.25;4967431;28;20144;-79
2021/07/30 00:11:38;;;;;;;3.47;2.90;;;;;;;17.56;63.13;96923.34;4955836;28;20030;-79
2021/07/30 00:14:04;;;;;;;4.10;3.03;;;;;;;17.55;62.97;96929.69;4966379;28;20030;-78
2021/07/30 00:16:29;;;;;;;4.22;2.58;;;;;;;17.50;63.26;96925.31;5003913;28;20496;-79
2021/07/30 00:18:55;;;;;;;5.75;3.35;;;;;;;17.54;63.76;96930.75;4955422;28;20034;-79
2021/07/30 00:21:20;;;;;;;3.47;2.55;;;;;;;17.54;64.11;96922.84;4955157;28;20393;-79
2021/07/30 00:23:45;;;;;;;4.20;2.40;;;;;;;17.54;64.01;96925.50;4954309;28;20054;-79
2021/07/30 00:26:11;;;;;;;4.97;2.63;;;;;;;17.54;63.70;96925.50;4971325;28;20034;-79
2021/07/30 00:28:36;;;;;;;3.58;2.45;;;;;;;17.48;63.39;96918.75;4955549;28;20385;-78
2021/07/30 00:31:02;;;;;;;2.97;2.50;;;;;;;17.46;63.17;96920.91;4972304;28;20385;-79
2021/07/30 00:33:28;;;;;;;4.05;3.00;;;;;;;17.41;63.72;96917.31;4974283;28;20031;-79
2021/07/30 00:35:55;;;;;;;4.03;2.80;;;;;;;17.38;63.89;96911.88;4955327;28;20030;-79
2021/07/30 00:38:20;;;;;;;3.53;2.40;;;;;;;17.38;63.83;96915.28;4971209;28;20417;-79
2021/07/30 00:40:46;;;;;;;4.95;2.67;;;;;;;17.34;64.18;96922.22;4955170;28;20026;-79
2021/07/30 00:43:11;;;;;;;3.50;2.80;;;;;;;17.28;64.09;96915.47;4955007;28;20109;-79
2021/07/30 00:45:37;;;;;;;3.05;2.72;;;;;;;17.23;64.59;96916.34;4955213;28;20224;-79
2021/07/30 00:48:03;;;;;;;4.30;2.40;;;;;;;17.25;64.79;96915.28;4955628;28;20069;-79
2021/07/30 00:50:29;;;;;;;3.28;2.80;;;;;;;17.25;65.07;96910.03;4951467;28;20402;-79
2021/07/30 00:52:54;;;;;;;2.80;2.50;;;;;;;17.23;64.60;96905.06;4977565;28;20026;-79
2021/07/30 00:55:20;;;;;;;4.05;2.40;;;;;;;17.23;64.60;96899.78;4955062;28;20033;-79
2021/07/30 00:57:45;;;;;;;2.92;2.40;;;;;;;17.25;64.64;96905.53;4957540;28;20072;-79
2021/07/30 01:00:11;;;;;;;3.40;2.65;;;;;;;17.27;64.51;96894.72;4950700;28;20537;-79
2021/07/30 01:02:37;;;;;;;2.60;2.10;;;;;;;17.28;64.17;96897.06;4970142;28;20093;-79
2021/07/30 01:05:03;;;;;;;4.05;2.53;;;;;;;17.26;64.33;96899.22;4952461;28;20133;-79
2021/07/30 01:07:29;;;;;;;3.38;2.50;;;;;;;17.27;63.96;96897.34;4938856;28;20027;-78
2021/07/30 01:09:54;;;;;;;4.20;2.55;;;;;;;17.28;64.23;96904.94;4971084;28;20046;-79
2021/07/30 01:12:20;;;;;;;5.07;2.53;;;;;;;17.27;64.92;96902.63;4955243;28;20026;-78
2021/07/30 01:14:45;;;;;;;3.63;2.78;;;;;;;17.30;64.91;96902.03;4955386;28;20034;-78
2021/07/30 01:19:45;;;;;;;;;;;;;;;16.97;65.11;96907.41;5273661;23;20472;-80
2021/07/30 01:22:23;;;;;;;4.85;2.50;;;;;;;17.10;64.65;96895.31;4992039;28;20006;-80
2021/07/30 01:24:50;;;;;;;5.45;2.60;;;;;;;17.33;64.88;96899.59;4987539;28;20129;-80
2021/07/30 01:27:16;;;;;;;3.75;2.78;;;;;;;17.37;64.92;96899.78;4969468;28;20392;-80
2021/07/30 01:29:41;;;;;;;5.35;2.50;;;;;;;17.40;64.78;96904.47;4999323;28;20026;-81
2021/07/30 01:32:07;;;;;;;4.25;2.55;;;;;;;17.37;64.55;96889.25;4975727;28;20048;-80
2021/07/30 01:34:33;;;;;;;3.63;2.63;;;;;;;17.39;64.33;96903.69;4992521;28;20030;-80
2021/07/30 01:36:58;;;;;;;4.03;2.55;;;;;;;17.36;64.02;96899.00;5005797;28;20025;-81
2021/07/30 01:39:23;;;;;;;5.03;2.67;;;;;;;17.37;64.49;96890.03;4963658;28;20042;-80
2021/07/30 01:41:49;;;;;;;3.30;2.40;;;;;;;17.41;64.59;96893.63;4995066;28;20507;-80
2021/07/30 01:44:14;;;;;;;3.05;2.40;;;;;;;17.45;64.19;96890.41;4985085;28;20030;-80
2021/07/30 01:46:40;;;;;;;3.75;2.72;;;;;;;17.45;64.08;96900.94;4998174;28;20112;-80
2021/07/30 01:49:05;;;;;;;5.13;2.60;;;;;;;17.36;63.92;96888.47;5000023;28;20029;-80
2021/07/30 01:51:33;;;;;;;3.42;2.33;;;;;;;17.33;64.19;96899.59;5010564;28;20487;-80
2021/07/30 01:53:59;;;;;;;2.58;2.10;;;;;;;17.37;64.45;96886.63;4986030;28;20065;-80
2021/07/30 01:56:24;;;;;;;3.50;2.60;;;;;;;17.41;64.52;96893.63;4995894;28;20404;-80
2021/07/30 01:58:49;;;;;;;3.97;2.38;;;;;;;17.32;64.48;96882.22;5011954;28;20630;-80
2021/07/30 02:01:15;;;;;;;3.67;2.47;;;;;;;17.31;64.89;96887.81;5015982;28;20460;-80
2021/07/30 02:03:40;;;;;;;4.90;2.70;;;;;;;17.30;64.42;96888.88;4995220;28;20045;-80
2021/07/30 02:06:09;;;;;;;4.00;2.75;;;;;;;17.19;64.19;96888.31;4985613;28;20037;-80
2021/07/30 02:08:35;;;;;;;3.58;2.38;;;;;;;17.26;64.00;96890.56;4983087;28;20038;-81
2021/07/30 02:11:06;;;;;;;2.97;2.53;;;;;;;17.09;64.19;96883.25;4995797;28;20036;-80
2021/07/30 02:16:16;;;;;;;3.00;2.70;;;;;;;17.23;63.92;96889.28;4996930;28;20117;-80
2021/07/30 02:18:41;;;;;;;2.92;2.30;;;;;;;17.24;63.93;96890.84;5022079;28;20128;-81
2021/07/30 02:21:06;;;;;;;3.67;2.20;;;;;;;17.19;64.25;96886.44;4994247;28;20423;-81
2021/07/30 02:23:32;;;;;;;3.28;2.40;;;;;;;17.20;64.73;96884.59;5028474;28;20079;-81
2021/07/30 02:25:57;;;;;;;4.03;2.33;;;;;;;17.20;64.46;96874.88;4981845;28;20495;-80
2021/07/30 02:28:23;;;;;;;4.43;2.60;;;;;;;17.18;64.51;96879.63;4981328;28;20029;-81
2021/07/30 02:30:48;;;;;;;3.10;2.40;;;;;;;17.18;64.43;96876.22;4994364;28;20026;-80
2021/07/30 02:33:13;;;;;;;4.00;2.50;;;;;;;17.13;64.36;96866.56;4990430;28;20455;-80
2021/07/30 02:35:41;;;;;;;2.90;2.58;;;;;;;17.17;64.72;96878.06;4990928;28;20032;-80
2021/07/30 02:38:06;;;;;;;4.53;2.63;;;;;;;17.13;64.69;96873.69;5020282;28;20037;-81
2021/07/30 02:40:32;;;;;;;4.10;2.40;;;;;;;17.17;64.34;96870.19;4981186;28;20078;-80
2021/07/30 02:42:57;;;;;;;4.30;2.42;;;;;;;17.25;64.54;96876.59;4993981;28;20030;-80
2021/07/30 02:45:23;;;;;;;2.88;2.67;;;;;;;17.21;64.96;96870.38;4989281;28;20103;-80
2021/07/30 02:47:48;;;;;;;2.67;2.30;;;;;;;17.25;63.81;96870.56;5018673;28;20041;-80
2021/07/30 02:50:13;;;;;;;3.08;2.55;;;;;;;17.19;64.11;96868.03;4980956;28;20060;-80
2021/07/30 02:52:39;;;;;;;4.53;2.70;;;;;;;17.20;64.12;96866.97;4997050;28;20029;-80
2021/07/30 02:55:04;;;;;;;4.30;2.25;;;;;;;17.24;64.00;96875.06;5013210;28;20033;-80
2021/07/30 02:57:30;;;;;;;6.30;2.75;;;;;;;17.22;63.88;96875.34;5013240;28;20052;-81
2021/07/30 02:59:55;;;;;;;3.33;2.45;;;;;;;17.13;63.80;96857.91;4996228;28;20432;-80
2021/07/30 03:02:21;;;;;;;3.45;2.70;;;;;;;17.04;63.75;96855.97;5013041;28;20063;-80
2021/07/30 03:04:46;;;;;;;3.45;2.42;;;;;;;17.02;63.97;96860.75;4977637;28;20065;-80
2021/07/30 03:07:11;;;;;;;3.00;2.38;;;;;;;16.94;63.89;96856.16;4995866;28;20585;-80
2021/07/30 03:09:39;;;;;;;3.63;2.53;;;;;;;16.95;64.53;96851.69;5010155;28;20026;-80
2021/07/30 03:12:05;;;;;;;4.32;2.50;;;;;;;16.88;64.70;96846.84;5017306;28;20033;-80
2021/07/30 03:14:33;;;;;;;6.30;2.30;;;;;;;16.90;64.67;96855.19;5005830;28;20511;-80
2021/07/30 03:16:58;;;;;;;4.32;2.58;;;;;;;16.91;64.92;96853.34;5009115;28;20381;-80
2021/07/30 03:19:23;;;;;;;3.00;2.55;;;;;;;16.89;64.97;96842.34;4979176;28;20504;-80
2021/07/30 03:21:49;;;;;;;3.45;2.90;;;;;;;16.89;65.59;96837.84;4981269;28;20060;-81
2021/07/30 03:24:14;;;;;;;3.00;2.70;;;;;;;16.95;64.91;96843.81;5013598;28;20029;-80
2021/07/30 03:26:40;;;;;;;3.17;2.35;;;;;;;16.92;64.73;96842.53;4996999;28;20040;-80
2021/07/30 03:29:05;;;;;;;3.67;2.45;;;;;;;16.82;64.39;96843.47;4995535;28;20026;-80
2021/07/30 03:31:30;;;;;;;2.33;2.13;;;;;;;16.78;64.33;96833.84;5011835;28;20026;-80
2021/07/30 03:33:56;;;;;;;3.10;2.13;;;;;;;16.73;64.64;96836.56;5012835;28;20039;-80
2021/07/30 03:36:21;;;;;;;2.90;2.08;;;;;;;16.75;64.67;96831.81;4996545;28;20053;-80
2021/07/30 03:38:47;;;;;;;3.42;2.97;;;;;;;16.76;64.48;96841.22;4996634;28;20025;-81
2021/07/30 03:41:12;;;;;;;3.00;2.17;;;;;;;16.69;64.60;96838.22;5002964;28;20032;-81
2021/07/30 03:43:37;;;;;;;2.63;2.42;;;;;;;16.67;65.20;96847.19;4992987;28;20460;-81
2021/07/30 03:46:03;;;;;;;2.72;2.40;;;;;;;16.61;65.04;96835.19;4987870;28;20030;-81
2021/07/30 03:48:28;;;;;;;3.70;2.42;;;;;;;16.62;64.87;96843.84;5013057;28;20469;-81
2021/07/30 03:50:54;;;;;;;4.45;2.22;;;;;;;16.64;64.29;96839.88;5009804;28;20069;-81
2021/07/30 03:53:19;;;;;;;3.78;2.65;;;;;;;16.65;64.09;96838.03;5010255;28;20163;-81
2021/07/30 03:55:44;;;;;;;4.30;2.30;;;;;;;16.65;63.30;96832.75;5012572;28;20542;-81
2021/07/30 03:58:10;;;;;;;3.13;2.20;;;;;;;16.65;63.39;96845.91;4995667;28;20037;-81
2021/07/30 04:00:37;;;;;;;4.13;2.30;;;;;;;16.48;63.91;96839.38;4980422;28;20123;-81
2021/07/30 04:03:03;;;;;;;3.80;2.42;;;;;;;16.42;64.41;96831.88;4996306;28;20025;-81
2021/07/30 04:05:28;;;;;;;3.50;2.03;;;;;;;16.42;64.12;96831.88;4996895;28;20039;-81
2021/07/30 04:07:56;;;;;;;2.42;2.00;;;;;;;16.35;64.43;96837.50;5012509;28;20037;-80
2021/07/30 04:10:21;;;;;;;3.85;2.53;;;;;;;16.33;64.27;96828.34;5006762;28;20487;-81
2021/07/30 04:12:47;;;;;;;3.17;2.25;;;;;;;16.28;64.20;96829.22;4973124;28;20060;-80
2021/07/30 04:15:12;;;;;;;3.05;2.25;;;;;;;16.26;64.30;96839.22;4972818;28;20025;-80
2021/07/30 04:17:37;;;;;;;3.65;2.15;;;;;;;16.20;64.30;96833.28;4997513;28;20061;-80
2021/07/30 04:20:03;;;;;;;2.55;2.13;;;;;;;16.10;64.55;96828.22;5008046;28;20053;-80
2021/07/30 04:22:28;;;;;;;3.63;2.60;;;;;;;16.10;64.40;96834.22;4979866;28;20021;-80
2021/07/30 04:24:54;;;;;;;2.65;2.38;;;;;;;16.07;64.69;96828.78;4995407;28;20074;-80
2021/07/30 04:27:19;;;;;;;2.80;2.30;;;;;;;16.08;64.82;96832.97;5029087;28;20087;-81
2021/07/30 04:29:44;;;;;;;4.22;2.47;;;;;;;16.10;64.92;96834.22;4995459;28;20067;-81
2021/07/30 04:32:11;;;;;;;3.83;2.35;;;;;;;16.11;65.64;96845.53;4993843;28;20025;-80
2021/07/30 04:34:37;;;;;;;3.67;2.00;;;;;;;16.18;65.52;96845.16;5006723;28;20032;-81
2021/07/30 04:37:04;;;;;;;3.13;2.38;;;;;;;16.15;65.02;96837.84;4977515;28;20343;-80
2021/07/30 04:39:29;;;;;;;2.97;2.60;;;;;;;16.20;65.04;96840.41;4992455;28;20034;-81
2021/07/30 04:41:54;;;;;;;4.95;2.20;;;;;;;16.16;64.93;96839.41;4975680;28;20104;-81
2021/07/30 04:44:20;;;;;;;4.28;2.40;;;;;;;16.27;65.07;96843.44;4992120;28;20029;-80
2021/07/30 04:46:46;;;;;;;3.45;2.28;;;;;;;16.31;65.08;96836.50;4993304;28;20445;-80
2021/07/30 04:49:12;;;;;;;2.80;2.53;;;;;;;16.36;64.65;96846.94;5004567;28;20699;-81
2021/07/30 04:51:37;;;;;;;3.42;2.90;;;;;;;16.38;64.46;96838.75;5007459;28;20037;-80
2021/07/30 04:54:03;;;;;;;2.20;2.00;;;;;;;16.46;64.91;96846.75;4999291;28;20056;-81
2021/07/30 04:56:28;;;;;;;4.82;3.17;;;;;;;16.45;64.17;96839.16;4960017;28;20551;-81
2021/07/30 04:58:54;;;;;;;3.58;2.72;;;;;;;16.46;64.30;96836.25;4991259;28;20096;-81
2021/07/30 05:01:19;;;;;;;2.63;2.30;;;;;;;16.52;64.50;96844.84;4974230;28;20033;-81
2021/07/30 05:03:44;;;;;;;3.50;2.88;;;;;;;16.56;64.47;96845.81;4989058;28;20582;-81
2021/07/30 05:06:13;;;;;;;2.88;2.20;;;;;;;16.61;64.12;96831.81;4990621;28;20400;-81
2021/07/30 05:08:39;;;;;;;4.15;2.70;;;;;;;16.68;63.86;96829.56;5001162;28;20488;-82
2021/07/30 05:11:04;;;;;;;3.35;2.35;;;;;;;16.74;63.83;96832.84;4996500;28;20103;-80
2021/07/30 05:13:30;;;;;;;3.40;2.38;;;;;;;16.78;63.49;96831.22;4997219;28;20029;-80
2021/07/30 05:15:56;;;;;;;3.72;2.67;;;;;;;16.84;63.20;96837.94;4997922;28;20034;-81
2021/07/30 05:18:21;;;;;;;2.35;2.15;;;;;;;16.87;63.09;96833.97;4992438;28;20542;-81
2021/07/30 05:20:46;;;;;;;2.72;2.22;;;;;;;16.87;63.19;96833.97;4962491;28;20596;-80
2021/07/30 05:23:12;;;;;;;2.58;2.38;;;;;;;16.90;63.15;96831.53;5019951;28;20117;-81
2021/07/30 05:25:37;;;;;;;3.75;2.75;;;;;;;16.99;62.94;96836.88;4997447;28;20338;-81
2021/07/30 05:28:03;;;;;;;3.28;2.60;;;;;;;17.01;62.93;96838.13;5011892;28;20029;-81
2021/07/30 05:30:29;;;;;;;4.28;2.17;;;;;;;17.02;62.51;96831.81;5014153;28;20314;-81
2021/07/30 05:32:54;;;;;;;5.03;2.35;;;;;;;17.11;62.62;96829.25;4982291;28;20129;-81
2021/07/30 05:35:19;;;;;;;3.55;2.13;;;;;;;17.15;62.44;96816.28;5015356;28;20036;-81
2021/07/30 05:37:45;;;;;;;2.72;2.22;;;;;;;17.26;62.22;96824.78;4998355;28;20391;-81
2021/07/30 05:40:10;;;;;;;5.88;2.45;;;;;;;17.31;62.53;96824.66;4998541;28;20029;-81
2021/07/30 05:42:36;;;;;;;3.42;1.95;;;;;;;17.44;62.03;96825.69;4998397;28;20152;-81
2021/07/30 05:45:01;;;;;;;2.97;2.08;;;;;;;17.39;62.10;96821.31;4969284;28;20029;-80
2021/07/30 05:47:27;;;;;;;3.45;2.60;;;;;;;17.56;62.18;96818.03;4991120;28;20810;-81
2021/07/30 05:49:52;;;;;;;3.53;2.50;;;;;;;17.65;61.81;96821.53;5029689;28;20037;-81
2021/07/30 05:52:18;;;;;;;3.03;2.28;;;;;;;17.77;61.55;96832.31;5013816;28;20052;-81
2021/07/30 05:54:43;;;;;;;3.15;2.30;;;;;;;17.84;61.47;96825.81;4997893;28;20476;-81
2021/07/30 05:57:08;;;;;;;3.25;2.17;;;;;;;17.97;61.29;96830.28;4981190;28;20192;-81
2021/07/30 05:59:34;;;;;;;3.25;2.30;;;;;;;18.00;61.30;96816.50;5018055;28;20037;-81
2021/07/30 06:01:59;;;;;;;3.88;2.10;;;;;;;18.13;61.26;96820.94;4997460;28;20065;-81
2021/07/30 06:04:25;;;;;;;2.35;2.15;;;;;;;18.36;60.93;96828.78;4991885;28;20240;-81
2021/07/30 06:06:50;;;;;;;2.58;2.38;;;;;;;18.45;60.63;96823.56;4994282;28;20030;-81
2021/07/30 06:09:15;;;;;;;3.30;2.30;;;;;;;18.51;60.30;96815.22;4994470;28;20092;-81
2021/07/30 06:11:41;;;;;;;2.70;2.00;;;;;;;18.67;59.80;96817.44;4996575;28;20459;-81
2021/07/30 06:14:06;;;;;;;3.05;2.22;;;;;;;18.78;59.69;96812.66;5019418;28;20122;-81
2021/07/30 06:16:31;;;;;;;3.28;2.60;;;;;;;18.95;59.35;96819.88;5008936;28;20079;-80
2021/07/30 06:18:57;;;;;;;3.42;2.60;;;;;;;19.09;59.04;96817.91;4995561;28;20088;-80
2021/07/30 06:21:23;;;;;;;3.58;2.45;;;;;;;19.18;58.70;96800.22;4996642;28;20402;-81
2021/07/30 06:23:48;;;;;;;2.95;1.95;;;;;;;19.32;58.49;96799.28;4997125;28;20506;-81
2021/07/30 06:26:14;;;;;;;3.42;1.67;;;;;;;19.43;58.03;96801.31;4996771;28;20033;-81
2021/07/30 06:28:40;;;;;;;2.65;2.00;;;;;;;19.59;57.80;96801.63;4996304;28;20025;-81
2021/07/30 06:31:07;;;;;;;2.65;2.10;;;;;;;19.85;57.42;96813.28;4995617;28;20036;-81
2021/07/30 06:33:34;;;;;;;2.38;2.13;;;;;;;20.05;56.58;96806.53;4983956;28;20590;-81
2021/07/30 06:36:03;;;;;;;3.10;2.08;;;;;;;20.31;56.04;96799.31;5013172;28;20025;-81
2021/07/30 06:38:31;;;;;;;3.92;2.22;;;;;;;20.61;55.13;96804.63;4994232;28;20026;-81
2021/07/30 06:40:58;;;;;;;3.92;2.15;;;;;;;20.96;53.92;96809.78;5002610;28;20041;-81
2021/07/30 06:43:26;;;;;;;3.25;2.10;;;;;;;21.22;53.34;96806.19;4992845;28;20570;-81
2021/07/30 06:46:00;;;;;;;1.92;1.73;;;;;;;21.34;53.23;96798.31;5012863;28;20503;-81
2021/07/30 06:48:27;;;;;;;2.70;2.00;;;;;;;21.98;51.47;96807.75;5010445;28;20120;-81
2021/07/30 06:50:54;;;;;;;2.10;1.83;;;;;;;22.22;50.91;96801.72;4977342;28;20037;-81
2021/07/30 06:53:21;;;;;;;2.60;1.85;;;;;;;22.61;50.17;96799.56;4996536;28;20200;-81
2021/07/30 06:55:47;;;;;;;2.78;1.88;;;;;;;23.00;49.06;96805.28;4995445;28;20475;-81
2021/07/30 06:58:14;;;;;;;2.22;2.03;;;;;;;23.34;47.87;96800.59;4995994;28;20089;-81
2021/07/30 07:00:40;;;;;;;2.00;1.80;;;;;;;23.58;46.76;96806.97;4977367;28;20034;-82
2021/07/30 07:03:10;;;;;;;4.38;2.28;;;;;;;23.72;47.53;96801.25;4982965;28;20520;-81
2021/07/30 07:05:36;;;;;;;2.45;2.05;;;;;;;23.78;48.12;96801.78;4989938;28;20333;-81
2021/07/30 07:08:03;;;;;;;2.50;1.60;;;;;;;24.02;47.15;96806.97;4996068;28;20387;-81
2021/07/30 07:10:29;;;;;;;3.08;2.30;;;;;;;24.25;47.25;96809.84;5012366;28;20055;-81
2021/07/30 07:12:55;;;;;;;3.80;2.70;;;;;;;24.42;46.51;96800.75;5005404;28;20518;-81
2021/07/30 07:15:22;;;;;;;2.25;2.00;;;;;;;24.57;45.38;96806.44;4989188;28;20038;-81
2021/07/30 07:17:49;;;;;;;2.05;1.85;;;;;;;24.78;44.40;96800.81;4995888;28;20025;-81
2021/07/30 07:20:15;;;;;;;2.40;1.80;;;;;;;24.89;43.86;96799.19;4995138;28;20045;-81
2021/07/30 07:22:41;;;;;;;2.58;2.38;;;;;;;25.08;43.49;96811.75;4995295;28;20021;-81
2021/07/30 07:25:08;;;;;;;1.90;1.80;;;;;;;25.34;41.97;96797.09;4985694;28;20033;-81
2021/07/30 07:27:36;;;;;;;2.17;1.98;;;;;;;25.46;40.67;96798.84;4988381;28;20472;-81
2021/07/30 07:30:03;;;;;;;2.97;2.13;;;;;;;25.52;41.41;96800.88;4978517;28;20045;-81
2021/07/30 07:32:29;;;;;;;2.40;2.05;;;;;;;25.84;41.03;96795.41;4991484;28;20456;-81
2021/07/30 07:34:56;;;;;;;3.15;2.20;;;;;;;25.90;41.38;96796.63;5003247;28;20167;-81
2021/07/30 07:37:22;;;;;;;1.70;1.50;;;;;;;25.90;41.07;96793.97;5008797;28;20370;-80
2021/07/30 07:39:48;;;;;;;2.40;1.80;;;;;;;25.92;41.52;96786.38;4977793;28;20052;-81
2021/07/30 07:42:14;;;;;;;2.47;1.75;;;;;;;26.15;41.03;96791.78;4991921;28;20528;-81
2021/07/30 07:44:40;;;;;;;2.13;1.92;;;;;;;26.30;41.14;96795.44;5012062;28;20037;-81
2021/07/30 07:47:07;;;;;;;2.20;2.00;;;;;;;26.41;40.29;96786.81;5013534;28;20477;-80
2021/07/30 07:49:33;;;;;;;2.30;1.88;;;;;;;26.27;41.66;96787.38;5017919;28;20530;-80
2021/07/30 07:52:00;;;;;;;2.67;2.10;;;;;;;26.21;41.45;96794.16;4991177;28;20014;-81
2021/07/30 07:54:27;;;;;;;2.30;2.10;;;;;;;26.34;40.97;96792.84;4988958;28;20034;-81
2021/07/30 07:56:54;;;;;;;1.98;1.88;;;;;;;26.44;41.49;96788.78;4981377;28;20037;-80
2021/07/30 07:59:20;;;;;;;7.93;2.83;;;;;;;26.61;40.65;96796.28;4987859;28;20029;-81
2021/07/30 08:01:47;;;;;;;2.30;2.10;;;;;;;26.86;39.90;96785.22;4991238;28;20384;-80
2021/07/30 08:04:13;;;;;;;3.15;2.30;;;;;;;27.09;39.58;96791.28;4974786;28;20087;-81
2021/07/30 08:06:41;;;;;;;2.70;2.50;;;;;;;27.03;39.66;96786.59;5002335;28;20515;-81
2021/07/30 08:09:07;;;;;;;2.67;2.45;;;;;;;27.17;38.91;96784.09;5001642;28;20607;-80
2021/07/30 08:11:32;;;;;;;2.53;2.33;;;;;;;27.32;38.54;96787.75;4999445;28;20112;-80
2021/07/30 08:13:57;;;;;;;2.83;2.40;;;;;;;27.60;39.35;96781.19;5015578;28;20496;-80
2021/07/30 08:16:25;;;;;;;2.53;2.33;;;;;;;27.58;37.81;96780.81;4998559;28;20456;-80
2021/07/30 08:18:50;;;;;;;2.25;2.05;;;;;;;27.62;40.06;96789.63;4993143;28;20041;-81
2021/07/30 08:21:16;;;;;;;3.03;2.15;;;;;;;27.73;38.50;96779.06;4973443;28;20068;-80
2021/07/30 08:23:41;;;;;;;3.55;1.90;;;;;;;28.10;37.55;96787.06;4997021;28;20500;-80
2021/07/30 08:26:06;;;;;;;3.33;2.25;;;;;;;28.10;38.58;96787.06;4991359;28;20028;-80
2021/07/30 08:28:32;;;;;;;2.63;2.42;;;;;;;28.05;38.40;96776.69;4992783;28;20116;-80
2021/07/30 08:30:57;;;;;;;2.67;2.33;;;;;;;28.13;35.64;96777.53;4992551;28;20025;-80
2021/07/30 08:33:22;;;;;;;2.75;2.55;;;;;;;28.17;37.05;96786.34;5006854;28;20025;-80
2021/07/30 08:35:48;;;;;;;2.72;2.53;;;;;;;28.16;35.85;96788.28;4976170;28;20026;-80
2021/07/30 08:38:13;;;;;;;3.38;3.05;;;;;;;28.40;34.93;96772.78;5023415;28;20112;-79
2021/07/30 08:40:40;;;;;;;2.83;2.63;;;;;;;28.22;38.63;96783.34;4993271;28;20472;-80
2021/07/30 08:43:05;;;;;;;2.80;2.60;;;;;;;27.89;36.82;96773.47;5006361;28;20041;-80
2021/07/30 08:45:31;;;;;;;2.90;2.70;;;;;;;28.31;37.34;96777.66;5010419;28;20037;-79
2021/07/30 08:48:00;;;;;;;3.05;2.40;;;;;;;28.42;36.85;96778.53;5011587;28;20033;-80
2021/07/30 08:50:25;;;;;;;2.97;2.67;;;;;;;28.85;36.64;96776.16;4985285;28;20420;-81
2021/07/30 08:52:56;;;;;;;2.50;2.30;;;;;;;28.54;35.35;96788.94;5010491;28;20018;-80
2021/07/30 08:55:29;;;;;;;2.78;2.42;;;;;;;28.71;34.95;96781.44;4988074;28;20495;-79
2021/07/30 08:57:55;;;;;;;2.47;2.35;;;;;;;28.82;34.33;96787.63;4983754;28;20069;-80
2021/07/30 09:00:21;;;;;;;3.30;3.10;;;;;;;28.82;34.11;96782.25;4995336;28;20374;-79
2021/07/30 09:02:48;;;;;;;3.00;2.78;;;;;;;28.17;38.08;96781.00;4994091;28;20037;-80
2021/07/30 09:05:28;;;;;;;4.95;2.80;;;;;;;27.81;37.33;96780.63;4993687;28;20030;-80
2021/07/30 09:07:54;;;;;;;2.83;2.63;;;;;;;27.99;39.04;96778.19;5029037;28;20038;-79
2021/07/30 09:10:30;;;;;;;2.97;2.70;;;;;;;28.18;38.19;96780.63;4987986;28;20466;-80
2021/07/30 09:13:21;;;;;;;3.08;2.22;;;;;;;28.47;36.68;96775.50;5006265;28;20608;-80
2021/07/30 09:16:08;;;;;;;2.67;2.47;;;;;;;28.65;35.95;96777.56;4997063;28;20125;-79
2021/07/30 09:18:36;;;;;;;3.78;2.67;;;;;;;28.57;35.01;96764.13;5000891;28;20048;-80
2021/07/30 09:21:24;;;;;;;3.38;2.53;;;;;;;27.99;35.71;96775.50;4997672;28;20045;-79
2021/07/30 09:23:57;;;;;;;3.45;2.75;;;;;;;27.91;37.01;96776.53;5026864;28;20037;-79
2021/07/30 09:26:30;;;;;;;3.05;2.70;;;;;;;27.53;37.28;96770.44;5024755;28;20044;-81
2021/07/30 09:28:58;;;;;;;3.00;2.80;;;;;;;27.61;39.03;96778.16;4991299;28;20429;-80
2021/07/30 09:31:37;;;;;;;2.40;2.17;;;;;;;27.79;40.06;96762.28;4997089;28;20025;-80
2021/07/30 09:34:20;;;;;;;2.60;2.40;;;;;;;28.46;35.06;96763.25;4958940;28;20426;-80
2021/07/30 09:36:54;;;;;;;3.13;2.80;;;;;;;28.72;38.72;96764.22;4977856;28;20025;-80
2021/07/30 09:39:21;;;;;;;3.05;2.75;;;;;;;28.99;36.91;96750.56;5012040;28;20174;-79
2021/07/30 09:41:51;;;;;;;2.97;2.78;;;;;;;28.98;36.43;96746.34;4993693;28;20444;-79
2021/07/30 09:44:17;;;;;;;2.70;2.50;;;;;;;29.07;37.51;96755.59;4989067;28;20408;-80
2021/07/30 09:46:44;;;;;;;2.75;2.55;;;;;;;28.92;37.78;96749.38;4982467;28;20032;-80
2021/07/30 09:49:10;;;;;;;2.95;2.65;;;;;;;29.16;35.86;96735.72;4994187;28;20768;-80
2021/07/30 09:51:36;;;;;;;2.83;2.63;;;;;;;29.40;35.93;96735.03;5019037;28;20038;-80
2021/07/30 09:54:01;;;;;;;2.75;2.55;;;;;;;29.79;36.45;96736.31;5020596;28;20239;-80
2021/07/30 09:56:27;;;;;;;2.72;2.53;;;;;;;29.72;35.84;96729.00;5001009;28;20025;-81
2021/07/30 09:58:56;;;;;;;3.40;3.10;;;;;;;30.08;34.12;96725.59;4987445;28;20542;-80
2021/07/30 10:01:21;;;;;;;3.28;2.70;;;;;;;30.00;35.30;96732.88;4997382;28;20362;-80
2021/07/30 10:03:47;;;;;;;2.83;2.63;;;;;;;29.69;34.38;96713.66;4984576;28;20030;-80
2021/07/30 10:06:13;;;;;;;3.13;2.92;;;;;;;30.00;34.24;96728.25;4993690;28;20121;-80
2021/07/30 10:08:42;;;;;;;2.85;2.65;;;;;;;30.16;35.63;96727.91;4996319;28;20037;-81
2021/07/30 10:11:12;;;;;;;3.85;2.88;;;;;;;30.27;35.12;96721.75;4995944;28;20064;-80
2021/07/30 10:13:49;;;;;;;3.13;2.92;;;;;;;30.29;34.81;96720.19;4992731;28;20119;-80
2021/07/30 10:16:16;;;;;;;3.22;2.75;;;;;;;30.43;34.10;96724.81;4987964;28;20036;-80
2021/07/30 10:18:42;;;;;;;3.15;2.85;;;;;;;30.38;34.01;96715.25;5003174;28;20033;-80
2021/07/30 10:21:08;;;;;;;2.97;2.55;;;;;;;30.52;32.91;96714.44;4995044;28;20425;-79
2021/07/30 10:23:38;;;;;;;4.47;2.60;;;;;;;30.34;33.96;96714.44;5030373;28;20030;-80
2021/07/30 10:26:04;;;;;;;3.33;2.35;;;;;;;30.31;33.06;96720.56;5010233;28;20029;-81
2021/07/30 10:28:32;;;;;;;3.47;3.17;;;;;;;30.33;33.64;96715.59;5012067;28;20041;-80
2021/07/30 10:30:59;;;;;;;5.90;2.88;;;;;;;30.47;33.96;96709.47;4995961;28;20017;-81
2021/07/30 10:33:30;;;;;;;2.85;2.58;;;;;;;30.26;33.83;96712.91;5000779;28;20519;-83
2021/07/30 10:35:57;;;;;;;2.70;2.17;;;;;;;30.63;33.91;96719.78;5004201;28;20128;-81
2021/07/30 10:38:24;;;;;;;2.60;2.40;;;;;;;30.73;32.59;96723.63;4995863;28;20072;-80
2021/07/30 10:41:08;;;;;;;3.55;2.75;;;;;;;30.78;32.25;96715.91;4994784;28;20484;-80
2021/07/30 10:43:49;;;;;;;2.88;2.47;;;;;;;31.11;31.81;96715.81;4981079;28;20072;-81
2021/07/30 10:46:16;;;;;;;3.20;2.95;;;;;;;31.00;32.82;96715.88;4998033;28;20032;-79
2021/07/30 10:48:42;;;;;;;3.78;3.03;;;;;;;30.89;33.55;96710.50;5005440;28;20061;-82
2021/07/30 10:51:22;;;;;;;4.95;2.47;;;;;;;31.07;30.89;96699.69;5009187;28;20065;-80
2021/07/30 10:53:57;;;;;;;2.97;2.75;;;;;;;31.24;32.07;96702.69;5007327;28;20381;-80
2021/07/30 10:56:22;;;;;;;;;;;;;;;30.97;32.87;96687.81;4984329;28;20037;-81
2021/07/30 10:58:56;;;;;;;2.67;2.47;;;;;;;31.33;30.04;96700.34;5010382;28;20394;-80
2021/07/30 11:01:27;;;;;;;3.25;2.95;;;;;;;31.04;31.23;96697.78;4995573;28;20545;-80
2021/07/30 11:03:53;;;;;;;3.30;3.10;;;;;;;30.69;31.81;96691.38;5009932;28;20120;-80
2021/07/30 11:06:36;;;;;;;3.53;2.88;;;;;;;30.76;31.63;96691.34;5000938;28;20133;-80
2021/07/30 11:09:04;;;;;;;2.53;2.33;;;;;;;30.93;31.52;96687.09;5022276;28;20096;-80
2021/07/30 11:11:54;;;;;;;2.90;2.70;;;;;;;30.65;32.78;96690.59;5028393;28;20107;-81
2021/07/30 11:14:31;;;;;;;2.67;2.47;;;;;;;30.46;32.03;96685.69;5005521;28;20037;-80
2021/07/30 11:17:17;;;;;;;3.15;2.75;;;;;;;30.40;32.19;96696.81;4990893;28;20056;-80
2021/07/30 11:19:46;;;;;;;3.03;2.60;;;;;;;30.26;34.85;96691.41;4996206;28;20080;-80
2021/07/30 11:22:13;;;;;;;3.88;2.80;;;;;;;30.19;32.86;96681.47;5008439;28;20022;-81
2021/07/30 11:24:44;;;;;;;5.90;3.17;;;;;;;30.10;33.98;96672.28;4993584;28;20431;-80
2021/07/30 11:27:11;;;;;;;2.60;2.40;;;;;;;30.47;32.66;96679.91;4977726;28;20042;-80
2021/07/30 11:29:36;;;;;;;3.42;3.08;;;;;;;30.33;31.48;96672.63;4997282;28;20077;-79
2021/07/30 11:32:06;;;;;;;2.80;2.53;;;;;;;30.11;32.21;96668.44;4994051;28;20077;-80
2021/07/30 11:34:42;;;;;;;3.25;2.60;;;;;;;29.80;31.87;96666.16;4991843;28;20459;-80
2021/07/30 11:37:12;;;;;;;2.63;2.40;;;;;;;29.58;32.97;96665.34;4967422;28;20033;-80
2021/07/30 11:39:40;;;;;;;3.15;2.88;;;;;;;29.43;33.46;96653.84;5022026;28;20029;-80